Tropical Cyclones
[Index]
Main Index Home Page Stock Weather Photos Extreme Storms Discussion Storm News and Storm Chasing Reports Tropical Cyclones / Hurricanes / Typhoons Weather Data and Links Wild Fires / Bushfires Weather Observation Techniques Weather Picture Catalogue Tornado Pictures and Reports Stock Video Footage and DVDs for sale
Season 1998-1999 Tropical Cyclone HAMISH Track Map
Season 1998-1999 Summaries: [BoM-AU] [JTWC-AU] [JTWC-SIO] [JTWC-SPAC] [JTWC-SH]
<<- Previous TC | BoM 1998-1999 Season | Next TC ->>

click for intensity scale information  Lat/long Grid: Show Hide

 Date Labels: Show Hide

Bureau of Meteorology Tropical Cyclone Data

Name: HAMISH
Number: 829 / 199899_14

19 Apr 1999 10:00 UTC to 21 Apr 1999 22:00 UTC

    date/time    lat    long    hPa   cat  kts
1999-04-19 10   10.5    93.6   1002         23          
1999-04-19 13   11.0    93.4   1002         23          
1999-04-19 16   11.4    93.2   1002         23          
1999-04-19 19   11.5    93.1   1000         27          
1999-04-19 22   11.6    93.0   1000         27          
1999-04-20 01   11.7    92.9   1000         27          
1999-04-20 04   12.0    92.8    998         29          
1999-04-20 07   12.6    92.7    995    1    35          
1999-04-20 10   13.1    92.7    990    1    41          
1999-04-20 13   13.5    92.5    985    2    49          
1999-04-20 16   13.7    92.2    980    2    54          
1999-04-20 19   13.9    91.8    980    2    54          
1999-04-20 22   14.0    91.5    980    2    54          
1999-04-21 01   14.4    91.3    980    2    54          
1999-04-21 04   14.7    91.1    985    2    49          
1999-04-21 07   14.9    90.8    985    2    49          
1999-04-21 10   15.2    90.5    990    1    41          
1999-04-21 13   15.4    90.2    995    1    35          
1999-04-21 16   15.6    89.8    998         29          
1999-04-21 19   15.8    89.4    998         29          
1999-04-21 22   15.9    89.1   1000         27          
Winds are 10-min average.

Tropical cyclone tracks developed by Michael Bath using data from the Bureau of Meteorology and Google Maps.


[Australian Severe Weather index] [Copyright Notice] [Email Contacts] [Search This Site] [Privacy Policy]
Document: tropical_cyclone_hamish.htm Updated: 30 May 2013